Time;durP1;ratioP1;P1;durP2;ratioP2;P2;SDS_P1;SDS_P2;PMS_P1;PMS_P2;Temp;Humidity;BMP_temperature;BMP_pressure;BME280_temperature;BME280_humidity;BME280_pressure;Samples;Min_cycle;Max_cycle;Signal;HPM_P1;HPM_P2
2023/03/23 00:01:12;;;;;;;7.65;3.05;;;12.80;99.90;;;;;;4992964;28;20400;-77
2023/03/23 00:03:39;;;;;;;9.90;4.53;;;12.80;99.90;;;;;;4991800;28;20057;-79
2023/03/23 00:06:05;;;;;;;7.47;4.03;;;12.70;99.90;;;;;;4988647;28;20019;-79
2023/03/23 00:08:37;;;;;;;8.52;4.30;;;12.70;99.90;;;;;;4988538;28;20026;-77
2023/03/23 00:11:04;;;;;;;12.75;5.03;;;12.70;99.90;;;;;;4990328;28;20034;-78
2023/03/23 00:13:30;;;;;;;11.50;4.72;;;12.70;99.90;;;;;;4991545;28;20037;-78
2023/03/23 00:15:56;;;;;;;8.98;4.05;;;12.80;99.90;;;;;;4989161;28;20026;-78
2023/03/23 00:18:23;;;;;;;8.43;4.68;;;12.80;99.90;;;;;;5007348;28;20057;-78
2023/03/23 00:20:54;;;;;;;7.40;4.07;;;12.70;99.90;;;;;;4995293;28;20555;-78
2023/03/23 00:23:22;;;;;;;7.28;3.88;;;12.80;99.90;;;;;;5011210;28;20485;-78
2023/03/23 00:25:52;;;;;;;8.35;4.25;;;12.80;99.90;;;;;;5000801;28;20076;-78
2023/03/23 00:28:24;;;;;;;;;;;12.80;99.90;;;;;;4992058;28;20444;-78
2023/03/23 00:30:56;;;;;;;22.77;4.55;;;12.80;99.90;;;;;;4992518;28;19918;-78
2023/03/23 00:33:38;;;;;;;9.20;3.85;;;12.80;99.90;;;;;;4998135;28;20032;-78
2023/03/23 00:36:05;;;;;;;8.07;3.95;;;12.90;99.90;;;;;;4993642;28;20027;-78
2023/03/23 00:38:31;;;;;;;7.35;4.10;;;12.80;99.90;;;;;;5006722;28;20025;-78
2023/03/23 00:40:57;;;;;;;7.78;4.00;;;12.80;99.90;;;;;;4992945;28;20056;-78
2023/03/23 00:43:28;;;;;;;6.95;3.70;;;12.80;99.90;;;;;;4992284;28;20073;-80
2023/03/23 00:45:55;;;;;;;8.68;4.05;;;12.90;99.90;;;;;;4993006;28;20023;-77
2023/03/23 00:48:22;;;;;;;12.15;4.53;;;12.90;99.90;;;;;;4998399;28;20080;-78
2023/03/23 00:50:48;;;;;;;8.73;3.33;;;12.90;99.90;;;;;;4996250;28;20505;-78
2023/03/23 00:53:15;;;;;;;8.95;4.07;;;12.90;99.90;;;;;;5003639;28;20030;-79
2023/03/23 00:55:42;;;;;;;7.30;3.30;;;12.90;99.90;;;;;;5003599;28;20026;-80
2023/03/23 00:58:11;;;;;;;9.32;3.65;;;12.90;99.90;;;;;;4993402;28;20968;-79
2023/03/23 01:00:37;;;;;;;11.77;4.57;;;12.80;99.90;;;;;;4993689;28;20030;-77
2023/03/23 01:03:04;;;;;;;6.93;3.70;;;12.90;99.90;;;;;;5000813;28;20022;-78
2023/03/23 01:05:33;;;;;;;7.97;3.95;;;12.90;99.90;;;;;;4999169;28;20702;-79
2023/03/23 01:07:59;;;;;;;6.93;3.73;;;12.90;99.90;;;;;;4995464;28;20087;-77
2023/03/23 01:10:28;;;;;;;9.85;4.53;;;12.90;99.90;;;;;;5009726;28;20019;-77
2023/03/23 01:12:54;;;;;;;7.80;3.75;;;12.80;99.90;;;;;;4996394;28;20026;-78
2023/03/23 01:15:21;;;;;;;10.35;4.20;;;12.80;99.80;;;;;;4993314;28;20037;-78
2023/03/23 01:17:46;;;;;;;8.77;3.90;;;12.70;99.90;;;;;;5000511;28;20054;-78
2023/03/23 01:20:14;;;;;;;7.18;3.47;;;12.80;99.90;;;;;;5011412;28;20033;-77
2023/03/23 01:22:41;;;;;;;10.32;4.43;;;12.80;99.90;;;;;;4996051;28;20046;-78
2023/03/23 01:25:09;;;;;;;10.98;4.25;;;12.80;99.90;;;;;;5009550;28;20029;-79
2023/03/23 01:27:35;;;;;;;9.15;4.25;;;12.70;99.90;;;;;;5001008;28;20025;-78
2023/03/23 01:30:00;;;;;;;7.88;4.00;;;12.80;99.90;;;;;;4980522;28;20034;-78
2023/03/23 01:32:28;;;;;;;8.80;3.70;;;12.80;99.80;;;;;;4987910;28;20042;-79
2023/03/23 01:34:54;;;;;;;7.78;3.63;;;12.80;99.80;;;;;;5013433;28;20026;-79
2023/03/23 01:37:19;;;;;;;7.43;3.80;;;12.80;99.60;;;;;;4999784;28;20080;-78
2023/03/23 01:39:45;;;;;;;9.40;3.75;;;12.90;99.10;;;;;;4998978;28;20025;-78
2023/03/23 01:42:11;;;;;;;7.45;3.72;;;12.90;99.30;;;;;;4991937;28;20042;-78
2023/03/23 01:44:37;;;;;;;6.53;3.40;;;12.90;99.40;;;;;;4990178;28;20444;-78
2023/03/23 01:47:04;;;;;;;8.55;3.70;;;12.90;99.00;;;;;;4990865;28;20026;-78
2023/03/23 01:49:32;;;;;;;7.97;3.33;;;12.90;99.20;;;;;;4991513;28;20257;-78
2023/03/23 01:52:08;;;;;;;6.13;2.78;;;12.90;99.10;;;;;;4990540;28;20448;-78
2023/03/23 01:54:36;;;;;;;7.18;3.33;;;12.90;99.20;;;;;;4992082;28;20030;-78
2023/03/23 01:57:14;;;;;;;8.10;3.58;;;12.90;99.10;;;;;;5004114;28;20045;-77
2023/03/23 01:59:44;;;;;;;8.68;2.95;;;12.90;98.90;;;;;;4996889;28;20029;-78
2023/03/23 02:02:11;;;;;;;7.82;3.50;;;13.00;98.80;;;;;;4993715;28;20062;-78
2023/03/23 02:04:37;;;;;;;6.22;3.50;;;12.90;99.00;;;;;;5006245;28;20057;-79
2023/03/23 02:07:04;;;;;;;7.60;3.97;;;13.00;99.00;;;;;;4989987;28;20057;-78
2023/03/23 02:09:30;;;;;;;5.03;3.28;;;13.00;98.90;;;;;;4991117;28;20107;-78
2023/03/23 02:11:56;;;;;;;6.88;3.95;;;13.00;99.00;;;;;;4994073;28;20097;-78
2023/03/23 02:14:24;;;;;;;11.05;4.63;;;13.00;99.20;;;;;;4993771;28;20113;-78
2023/03/23 02:17:04;;;;;;;7.50;4.00;;;13.00;99.10;;;;;;4996153;28;20038;-77
2023/03/23 02:19:49;;;;;;;4.93;2.83;;;13.00;99.20;;;;;;4995398;28;20027;-77
2023/03/23 02:22:53;;;;;;;8.32;4.03;;;13.00;99.40;;;;;;5005294;28;20042;-78
2023/03/23 02:25:37;;;;;;;9.85;4.30;;;13.00;99.40;;;;;;4987075;28;20027;-78
2023/03/23 02:28:40;;;;;;;8.80;4.85;;;13.00;99.40;;;;;;4975581;28;20045;-76
2023/03/23 02:31:28;;;;;;;7.63;4.55;;;12.90;99.80;;;;;;4992747;28;20053;-78
2023/03/23 02:34:05;;;;;;;8.45;4.60;;;13.10;99.50;;;;;;5002687;28;20130;-79
2023/03/23 02:36:58;;;;;;;6.50;3.30;;;13.10;99.50;;;;;;5005297;28;20103;-78
2023/03/23 02:39:40;;;;;;;8.10;4.43;;;13.00;99.30;;;;;;4989277;28;20072;-78
2023/03/23 02:42:12;;;;;;;9.50;4.72;;;13.00;99.40;;;;;;5009177;28;20033;-78
2023/03/23 02:44:41;;;;;;;8.70;4.50;;;13.00;99.50;;;;;;4998380;28;20029;-79
2023/03/23 02:47:12;;;;;;;6.60;3.80;;;13.00;99.70;;;;;;4989402;28;20123;-80
2023/03/23 02:49:42;;;;;;;8.13;4.60;;;13.00;99.90;;;;;;4991913;28;20450;-78
2023/03/23 02:52:15;;;;;;;8.88;4.57;;;13.00;99.80;;;;;;4992982;28;20100;-78
2023/03/23 02:54:44;;;;;;;6.22;3.92;;;13.00;99.80;;;;;;5001191;28;20026;-79
2023/03/23 02:57:10;;;;;;;10.23;5.10;;;13.10;99.90;;;;;;4998228;28;20029;-78
2023/03/23 02:59:36;;;;;;;6.13;3.17;;;13.00;99.80;;;;;;5003641;28;20480;-77
2023/03/23 03:02:24;;;;;;;7.22;4.00;;;13.10;99.60;;;;;;4997353;28;20033;-79
2023/03/23 03:05:04;;;;;;;9.02;5.03;;;13.10;99.70;;;;;;4993554;28;21386;-77
2023/03/23 03:07:58;;;;;;;7.20;3.70;;;13.00;99.80;;;;;;4989331;28;20026;-78
2023/03/23 03:10:33;;;;;;;11.30;5.65;;;13.00;99.90;;;;;;4990805;28;20289;-78
2023/03/23 03:13:22;;;;;;;6.95;4.15;;;13.00;99.90;;;;;;4990429;28;20042;-79
2023/03/23 03:15:58;;;;;;;6.07;4.13;;;13.10;99.70;;;;;;4990811;28;20030;-77
2023/03/23 03:19:13;;;;;;;6.50;4.35;;;13.10;99.60;;;;;;4991872;28;20099;-77
2023/03/23 03:21:43;;;;;;;9.40;4.43;;;13.00;99.70;;;;;;4988152;28;20070;-78
2023/03/23 03:24:12;;;;;;;9.65;4.53;;;13.00;99.70;;;;;;4994257;28;20030;-77
2023/03/23 03:26:47;;;;;;;10.20;3.97;;;13.10;99.60;;;;;;4993020;28;20491;-77
2023/03/23 03:29:18;;;;;;;9.57;5.40;;;13.10;99.40;;;;;;4987988;28;20030;-78
2023/03/23 03:31:45;;;;;;;8.10;4.00;;;13.10;99.70;;;;;;4984476;28;20042;-77
2023/03/23 03:34:17;;;;;;;7.70;4.82;;;13.10;99.60;;;;;;5007666;28;20033;-77
2023/03/23 03:36:45;;;;;;;9.18;4.32;;;13.10;99.60;;;;;;4993245;28;20034;-77
2023/03/23 03:39:12;;;;;;;7.68;4.65;;;13.10;99.90;;;;;;5003385;28;20037;-77
2023/03/23 03:41:38;;;;;;;8.95;4.00;;;13.20;99.90;;;;;;4987477;28;20027;-78
2023/03/23 03:44:06;;;;;;;7.65;4.20;;;13.10;99.90;;;;;;4988196;28;20428;-78
2023/03/23 03:46:33;;;;;;;8.98;3.80;;;13.10;99.90;;;;;;4993965;28;20030;-78
2023/03/23 03:49:00;;;;;;;10.25;5.10;;;13.10;99.90;;;;;;5000543;28;20594;-77
2023/03/23 03:51:29;;;;;;;12.57;4.60;;;13.10;99.90;;;;;;4989900;28;20149;-78
2023/03/23 03:53:55;;;;;;;8.68;3.80;;;13.10;99.90;;;;;;4998728;28;20030;-77
2023/03/23 03:56:22;;;;;;;8.77;4.75;;;13.10;99.90;;;;;;5003867;28;20065;-78
2023/03/23 03:58:50;;;;;;;8.05;4.25;;;13.10;99.90;;;;;;5005020;28;20108;-79
2023/03/23 04:01:24;;;;;;;9.07;4.85;;;13.10;99.90;;;;;;4989696;28;20035;-79
2023/03/23 04:03:50;;;;;;;7.57;3.47;;;13.10;99.80;;;;;;5007053;28;20429;-78
2023/03/23 04:06:16;;;;;;;8.55;5.03;;;13.10;99.70;;;;;;5004583;28;20567;-78
2023/03/23 04:08:42;;;;;;;6.57;4.15;;;13.00;99.60;;;;;;4996648;28;20091;-79
2023/03/23 04:11:10;;;;;;;7.82;4.10;;;13.10;99.60;;;;;;5001956;28;20102;-79
2023/03/23 04:13:36;;;;;;;8.00;3.95;;;13.00;99.50;;;;;;4997229;28;20556;-78
2023/03/23 04:16:03;;;;;;;8.50;3.97;;;13.10;99.40;;;;;;4992082;28;20019;-79
2023/03/23 04:18:29;;;;;;;9.55;4.10;;;13.00;99.40;;;;;;4990987;28;20570;-78
2023/03/23 04:20:58;;;;;;;7.72;4.07;;;13.10;99.10;;;;;;5004962;28;20166;-79
2023/03/23 04:23:25;;;;;;;8.90;3.33;;;13.20;99.10;;;;;;5000343;28;20037;-79
2023/03/23 04:25:53;;;;;;;5.40;3.35;;;13.20;99.10;;;;;;4993862;28;20038;-78
2023/03/23 04:28:23;;;;;;;7.15;3.60;;;13.20;99.00;;;;;;4992056;28;20024;-78
2023/03/23 04:30:52;;;;;;;10.35;4.28;;;13.20;98.80;;;;;;5007697;28;20045;-78
2023/03/23 04:33:19;;;;;;;7.82;4.43;;;13.30;98.50;;;;;;5001240;28;20026;-78
2023/03/23 04:35:47;;;;;;;6.55;3.53;;;13.20;98.60;;;;;;4996031;28;20126;-78
2023/03/23 04:38:15;;;;;;;8.13;3.65;;;13.30;98.60;;;;;;4995005;28;20085;-78
2023/03/23 04:40:43;;;;;;;8.95;3.90;;;13.30;98.30;;;;;;4992360;28;20036;-79
2023/03/23 04:43:08;;;;;;;6.70;3.20;;;13.30;98.30;;;;;;4987318;28;20026;-80
2023/03/23 04:45:37;;;;;;;8.80;2.95;;;13.30;98.30;;;;;;4992692;28;20029;-78
2023/03/23 04:48:04;;;;;;;8.38;2.67;;;13.30;98.20;;;;;;5000227;28;20101;-78
2023/03/23 04:50:32;;;;;;;6.93;2.83;;;13.30;98.10;;;;;;4995616;28;20110;-80
2023/03/23 04:53:05;;;;;;;10.02;3.65;;;13.30;98.00;;;;;;4993578;28;20109;-77
2023/03/23 04:55:36;;;;;;;7.63;3.67;;;13.30;98.00;;;;;;4999035;28;20033;-78
2023/03/23 04:58:03;;;;;;;7.57;2.88;;;13.30;98.00;;;;;;5007258;28;20101;-79
2023/03/23 05:00:29;;;;;;;6.82;2.85;;;13.30;98.00;;;;;;4992560;28;20035;-79
2023/03/23 05:02:55;;;;;;;11.60;3.30;;;13.30;97.90;;;;;;5020529;28;20029;-78
2023/03/23 05:05:22;;;;;;;7.93;3.03;;;13.30;97.80;;;;;;4992923;28;20101;-78
2023/03/23 05:07:48;;;;;;;10.38;2.90;;;13.30;97.60;;;;;;4992592;28;20019;-79
2023/03/23 05:10:15;;;;;;;9.27;2.85;;;13.30;97.50;;;;;;4993490;28;20554;-79
2023/03/23 05:12:42;;;;;;;8.10;2.58;;;13.40;97.40;;;;;;4994138;28;20044;-79
2023/03/23 05:15:10;;;;;;;7.22;2.70;;;13.30;97.50;;;;;;4999771;28;20034;-77
2023/03/23 05:17:36;;;;;;;7.35;2.88;;;13.30;97.40;;;;;;4992978;28;20080;-78
2023/03/23 05:20:05;;;;;;;9.40;3.00;;;13.30;97.40;;;;;;4995187;28;20476;-79
2023/03/23 05:22:33;;;;;;;7.15;2.33;;;13.40;97.40;;;;;;4990863;28;20490;-79
2023/03/23 05:25:02;;;;;;;8.95;3.00;;;13.30;97.30;;;;;;4990207;28;20809;-78
2023/03/23 05:27:30;;;;;;;8.50;2.70;;;13.30;97.30;;;;;;5000897;28;20036;-79
2023/03/23 05:29:57;;;;;;;14.35;3.00;;;13.20;97.20;;;;;;4993090;28;20392;-78
2023/03/23 05:32:28;;;;;;;12.02;2.67;;;13.30;97.10;;;;;;4994782;28;20100;-78
2023/03/23 05:34:58;;;;;;;7.53;2.63;;;13.30;97.10;;;;;;5003309;28;20021;-78
2023/03/23 05:37:25;;;;;;;7.82;2.88;;;13.30;97.10;;;;;;4999773;28;20026;-79
2023/03/23 05:39:54;;;;;;;11.98;3.53;;;13.30;97.10;;;;;;5002715;28;20034;-78
2023/03/23 05:42:22;;;;;;;11.02;2.70;;;13.30;97.10;;;;;;4994722;28;20023;-78
2023/03/23 05:44:49;;;;;;;10.40;3.05;;;13.30;97.10;;;;;;5005281;28;20548;-78
2023/03/23 05:47:16;;;;;;;8.02;2.40;;;13.30;96.90;;;;;;4997360;28;20461;-78
2023/03/23 05:49:41;;;;;;;10.07;1.83;;;13.30;97.00;;;;;;5006414;28;20029;-77
2023/03/23 05:52:07;;;;;;;9.55;2.80;;;13.30;97.00;;;;;;4991784;28;20593;-78
2023/03/23 05:54:34;;;;;;;8.00;2.42;;;13.20;97.10;;;;;;4997280;28;20041;-78
2023/03/23 05:57:00;;;;;;;11.68;2.45;;;13.30;97.00;;;;;;4989831;28;20034;-80
2023/03/23 05:59:25;;;;;;;11.38;2.60;;;13.40;97.00;;;;;;5003078;28;20084;-78
2023/03/23 06:01:53;;;;;;;12.23;3.08;;;13.30;97.00;;;;;;4992910;28;20393;-79
2023/03/23 06:04:21;;;;;;;7.07;1.65;;;13.30;97.10;;;;;;4990045;28;20023;-78
2023/03/23 06:06:47;;;;;;;5.95;1.90;;;13.40;97.00;;;;;;4991225;28;20033;-77
2023/03/23 06:09:13;;;;;;;8.20;2.17;;;13.40;97.00;;;;;;4991585;28;20101;-79
2023/03/23 06:11:38;;;;;;;9.48;3.30;;;13.30;97.10;;;;;;4991043;28;20148;-78
2023/03/23 06:14:04;;;;;;;9.52;2.22;;;13.30;97.50;;;;;;4992447;28;20030;-79
2023/03/23 06:16:30;;;;;;;9.30;2.55;;;13.30;97.30;;;;;;4990522;28;20118;-78
2023/03/23 06:18:56;;;;;;;7.13;2.15;;;13.30;97.30;;;;;;4999717;28;20038;-78
2023/03/23 06:21:22;;;;;;;8.75;2.22;;;13.30;97.20;;;;;;4995066;28;20018;-78
2023/03/23 06:23:48;;;;;;;8.50;2.33;;;13.30;97.30;;;;;;5004896;28;20472;-79
2023/03/23 06:26:16;;;;;;;9.40;2.72;;;13.30;97.20;;;;;;5004452;28;20033;-79
2023/03/23 06:28:43;;;;;;;14.27;2.97;;;13.40;97.20;;;;;;4988436;28;20052;-77
2023/03/23 06:31:09;;;;;;;8.48;2.28;;;13.40;97.20;;;;;;4994610;28;20515;-79
2023/03/23 06:33:36;;;;;;;9.85;2.33;;;13.40;97.20;;;;;;4995575;28;20027;-79
2023/03/23 06:36:02;;;;;;;10.00;2.17;;;13.40;97.10;;;;;;4998505;28;20366;-79
2023/03/23 06:38:28;;;;;;;14.63;2.80;;;13.40;97.10;;;;;;4990180;28;20038;-78
2023/03/23 06:40:55;;;;;;;7.03;2.40;;;13.40;97.10;;;;;;4993812;28;20022;-79
2023/03/23 06:43:21;;;;;;;5.75;1.80;;;13.40;97.10;;;;;;4990274;28;20063;-79
2023/03/23 06:45:47;;;;;;;12.80;3.35;;;13.40;97.00;;;;;;4989699;28;20049;-77
2023/03/23 06:48:13;;;;;;;12.43;3.00;;;13.30;97.20;;;;;;4990671;28;20466;-78
2023/03/23 06:50:46;;;;;;;14.35;2.58;;;13.40;97.20;;;;;;4997250;28;20026;-78
2023/03/23 06:53:13;;;;;;;11.88;3.33;;;13.40;97.10;;;;;;4991290;28;20392;-76
2023/03/23 06:55:38;;;;;;;10.93;2.33;;;13.40;97.10;;;;;;5004833;28;20153;-77
2023/03/23 06:58:05;;;;;;;14.10;3.50;;;13.40;97.10;;;;;;4997490;28;20082;-78
2023/03/23 07:00:32;;;;;;;12.13;2.42;;;13.40;97.30;;;;;;4995122;28;20591;-77
2023/03/23 07:02:58;;;;;;;9.57;2.38;;;13.40;97.20;;;;;;4995364;28;20023;-77
2023/03/23 07:05:26;;;;;;;7.90;2.70;;;13.40;97.30;;;;;;4990910;28;20088;-78
2023/03/23 07:07:51;;;;;;;9.35;2.35;;;13.40;97.40;;;;;;4990041;28;20401;-79
2023/03/23 07:10:17;;;;;;;11.68;2.45;;;13.30;97.50;;;;;;5007548;28;20030;-79
2023/03/23 07:12:43;;;;;;;10.88;2.85;;;13.40;97.70;;;;;;4988832;28;20587;-80
2023/03/23 07:15:10;;;;;;;8.98;2.22;;;13.30;97.60;;;;;;4990955;28;20150;-79
2023/03/23 07:17:37;;;;;;;7.90;2.25;;;13.20;97.50;;;;;;4989783;28;20046;-80
2023/03/23 07:20:04;;;;;;;10.50;2.58;;;13.30;97.70;;;;;;4988118;28;20026;-78
2023/03/23 07:22:30;;;;;;;11.95;2.90;;;13.30;97.70;;;;;;4987047;28;20393;-80
2023/03/23 07:24:56;;;;;;;9.70;2.10;;;13.40;97.70;;;;;;4988042;28;20061;-80
2023/03/23 07:27:22;;;;;;;12.23;2.55;;;13.40;97.70;;;;;;4993576;28;20030;-80
2023/03/23 07:29:47;;;;;;;9.68;2.70;;;13.40;97.70;;;;;;4991730;28;20030;-79
2023/03/23 07:32:13;;;;;;;12.82;2.85;;;13.40;97.70;;;;;;4994352;28;20157;-81
2023/03/23 07:34:40;;;;;;;13.27;3.00;;;13.40;97.60;;;;;;4992712;28;20113;-80
2023/03/23 07:37:06;;;;;;;10.05;2.83;;;13.40;97.70;;;;;;4990431;28;20022;-79
2023/03/23 07:39:33;;;;;;;6.72;2.38;;;13.50;97.70;;;;;;4992288;28;20031;-78
2023/03/23 07:41:58;;;;;;;8.90;1.83;;;13.40;97.50;;;;;;4995582;28;20023;-80
2023/03/23 07:44:24;;;;;;;7.68;2.00;;;13.40;97.00;;;;;;4999328;28;20026;-78
2023/03/23 07:46:50;;;;;;;7.25;1.90;;;13.40;96.90;;;;;;4992033;28;20069;-79
2023/03/23 07:49:17;;;;;;;7.22;1.80;;;13.40;96.60;;;;;;4995679;28;20030;-79
2023/03/23 07:51:43;;;;;;;9.93;2.92;;;13.30;96.20;;;;;;4991236;28;20038;-78
2023/03/23 07:54:08;;;;;;;6.55;2.03;;;13.30;96.40;;;;;;4991854;28;20026;-78
2023/03/23 07:56:35;;;;;;;6.45;2.00;;;13.30;96.60;;;;;;4994508;28;20527;-81
2023/03/23 07:59:02;;;;;;;8.82;1.85;;;13.20;96.80;;;;;;5003046;28;20054;-80
2023/03/23 08:01:28;;;;;;;6.95;1.83;;;13.20;97.10;;;;;;4995699;28;20528;-81
2023/03/23 08:03:57;;;;;;;8.55;2.00;;;13.10;97.40;;;;;;4990918;28;20026;-79
2023/03/23 08:06:23;;;;;;;9.30;2.28;;;13.00;97.90;;;;;;4991515;28;20033;-79
2023/03/23 08:08:49;;;;;;;10.15;2.75;;;12.90;98.40;;;;;;4991381;28;20022;-79
2023/03/23 08:11:15;;;;;;;8.98;2.50;;;13.00;98.60;;;;;;4990098;28;20492;-78
2023/03/23 08:13:41;;;;;;;9.15;3.10;;;12.80;98.90;;;;;;4993846;28;20025;-79
2023/03/23 08:16:09;;;;;;;9.15;2.50;;;12.90;99.10;;;;;;4991733;28;20137;-78
2023/03/23 08:18:35;;;;;;;3.85;1.65;;;12.80;99.30;;;;;;4992252;28;20049;-79
2023/03/23 08:21:04;;;;;;;8.30;2.03;;;13.00;98.60;;;;;;4992252;28;20029;-79
2023/03/23 08:23:30;;;;;;;13.30;3.47;;;13.00;98.70;;;;;;4990404;28;20029;-78
2023/03/23 08:25:55;;;;;;;10.63;2.85;;;13.00;99.50;;;;;;4996722;28;20045;-79
2023/03/23 08:28:21;;;;;;;12.35;3.35;;;13.00;99.60;;;;;;5000788;28;20093;-79
2023/03/23 08:30:48;;;;;;;12.50;2.85;;;12.90;99.90;;;;;;4999725;28;20045;-78
2023/03/23 08:33:14;;;;;;;9.82;3.20;;;13.00;99.90;;;;;;4993687;28;20042;-79
2023/03/23 08:35:40;;;;;;;12.40;2.75;;;12.90;99.90;;;;;;4998011;28;20030;-79
2023/03/23 08:38:05;;;;;;;10.38;2.60;;;12.90;99.90;;;;;;4996619;28;20030;-78
2023/03/23 08:40:32;;;;;;;9.65;2.95;;;12.90;99.90;;;;;;4990745;28;20072;-78
2023/03/23 08:42:58;;;;;;;8.40;2.10;;;12.90;99.90;;;;;;4997462;28;20029;-78
2023/03/23 08:45:26;;;;;;;12.30;3.33;;;12.90;99.90;;;;;;4999594;28;20026;-79
2023/03/23 08:47:54;;;;;;;11.70;2.50;;;13.00;99.90;;;;;;4994536;28;20089;-79
2023/03/23 08:50:24;;;;;;;8.55;2.75;;;13.00;99.80;;;;;;5006552;28;20025;-77
2023/03/23 08:52:50;;;;;;;7.63;2.77;;;13.10;99.50;;;;;;4988103;28;20034;-80
2023/03/23 08:55:17;;;;;;;9.07;2.40;;;13.10;99.30;;;;;;4996482;28;20104;-80
2023/03/23 08:57:44;;;;;;;10.05;2.90;;;13.10;99.20;;;;;;4993739;28;20037;-77
2023/03/23 09:00:18;;;;;;;7.22;2.05;;;13.10;98.80;;;;;;4986324;28;20030;-76
2023/03/23 09:02:51;;;;;;;7.32;2.03;;;13.10;98.70;;;;;;4986374;28;20109;-76
2023/03/23 09:05:18;;;;;;;7.30;1.80;;;13.40;98.00;;;;;;4986052;28;20030;-75
2023/03/23 09:07:47;;;;;;;5.45;1.80;;;13.30;97.80;;;;;;4985807;28;20093;-76
2023/03/23 09:10:13;;;;;;;7.65;1.92;;;13.30;97.90;;;;;;4986057;28;20477;-77
2023/03/23 09:12:41;;;;;;;8.65;2.35;;;13.30;97.70;;;;;;4984420;28;20441;-77
2023/03/23 09:15:09;;;;;;;4.53;1.73;;;13.20;97.60;;;;;;4986516;28;20026;-79
2023/03/23 09:17:56;;;;;;;6.10;1.50;;;13.20;97.40;;;;;;4985776;28;20051;-75
2023/03/23 09:20:24;;;;;;;8.35;2.08;;;13.20;97.30;;;;;;4988280;28;20026;-76
2023/03/23 09:22:52;;;;;;;7.13;2.00;;;13.20;97.40;;;;;;4985654;28;20121;-77
2023/03/23 09:25:21;;;;;;;7.47;1.90;;;13.20;97.20;;;;;;4986257;28;20169;-76
2023/03/23 09:27:53;;;;;;;7.63;1.65;;;13.40;97.10;;;;;;4985970;28;20023;-76
2023/03/23 09:30:20;;;;;;;7.88;1.70;;;13.50;96.40;;;;;;4986746;28;20508;-77
2023/03/23 09:32:47;;;;;;;4.03;1.30;;;13.60;96.20;;;;;;4985487;28;20096;-77
2023/03/23 09:35:16;;;;;;;5.15;1.38;;;13.60;96.40;;;;;;4986500;28;20034;-76
2023/03/23 09:37:44;;;;;;;6.05;2.20;;;13.60;96.10;;;;;;4986429;28;20026;-78
2023/03/23 09:40:48;;;;;;;7.55;2.20;;;13.70;96.00;;;;;;4985813;28;20384;-75
2023/03/23 09:43:22;;;;;;;9.93;1.40;;;13.90;95.40;;;;;;4962937;28;20397;-75
2023/03/23 09:46:02;;;;;;;5.53;1.60;;;14.00;95.10;;;;;;4982223;28;20849;-77
2023/03/23 09:48:54;;;;;;;7.55;1.50;;;14.10;95.20;;;;;;4985531;28;20030;-79
2023/03/23 09:51:46;;;;;;;7.97;1.80;;;14.10;94.80;;;;;;4985492;28;20034;-77
2023/03/23 09:54:25;;;;;;;10.48;1.67;;;14.20;95.00;;;;;;4985403;28;20030;-76
2023/03/23 09:56:51;;;;;;;5.97;1.58;;;14.30;94.40;;;;;;5001612;28;20033;-75
2023/03/23 09:59:20;;;;;;;9.43;1.90;;;14.40;94.70;;;;;;4984002;28;20030;-76
2023/03/23 10:01:51;;;;;;;9.45;2.20;;;14.70;94.10;;;;;;4986202;28;20366;-76
2023/03/23 10:04:46;;;;;;;11.10;2.13;;;15.00;93.80;;;;;;4982498;28;20052;-80
2023/03/23 10:07:16;;;;;;;10.13;2.00;;;15.30;93.00;;;;;;4987519;28;20492;-79
2023/03/23 10:09:45;;;;;;;8.50;2.13;;;15.20;92.30;;;;;;5000853;28;20033;-76
2023/03/23 10:12:48;;;;;;;8.85;2.22;;;15.10;92.70;;;;;;4991374;28;20113;-74
2023/03/23 10:15:25;;;;;;;8.27;1.88;;;15.40;92.80;;;;;;4983707;28;20066;-74
2023/03/23 10:17:57;;;;;;;10.95;2.30;;;15.70;92.00;;;;;;5001340;28;20426;-75
2023/03/23 10:20:29;;;;;;;10.98;3.00;;;15.80;91.60;;;;;;4998745;28;20037;-79
2023/03/23 10:23:05;;;;;;;9.52;2.00;;;16.00;91.40;;;;;;4980083;28;20035;-77
2023/03/23 10:25:37;;;;;;;9.32;2.20;;;16.20;90.90;;;;;;4989365;28;20137;-79
2023/03/23 10:28:17;;;;;;;9.13;2.88;;;16.40;91.30;;;;;;4988319;28;20045;-77
2023/03/23 10:30:45;;;;;;;;;;;16.50;90.40;;;;;;5005895;28;20025;-77
2023/03/23 10:33:24;;;;;;;10.05;3.15;;;16.60;90.00;;;;;;4989797;28;19940;-78
2023/03/23 10:36:09;;;;;;;10.13;2.88;;;16.50;89.00;;;;;;4985178;28;20546;-80
2023/03/23 10:38:42;;;;;;;11.57;2.88;;;16.40;90.30;;;;;;4980836;28;20058;-78
2023/03/23 10:41:16;;;;;;;9.93;3.10;;;16.40;90.60;;;;;;4986783;28;20057;-79
2023/03/23 10:43:43;;;;;;;10.77;2.42;;;16.50;90.30;;;;;;4986554;28;20023;-78
2023/03/23 10:46:26;;;;;;;12.40;2.47;;;16.50;90.70;;;;;;4988972;28;20516;-79
2023/03/23 10:48:53;;;;;;;11.43;2.45;;;16.50;89.50;;;;;;4980858;28;20670;-80
2023/03/23 10:51:23;;;;;;;9.95;2.50;;;16.50;87.80;;;;;;4986956;28;20126;-81
2023/03/23 10:53:58;;;;;;;12.25;2.50;;;16.50;88.20;;;;;;4990986;28;20049;-79
2023/03/23 10:56:28;;;;;;;10.85;2.33;;;16.30;88.20;;;;;;4986249;28;20034;-79
2023/03/23 10:58:54;;;;;;;10.75;2.97;;;16.20;88.40;;;;;;4989519;28;20100;-76
2023/03/23 11:01:34;;;;;;;13.57;2.97;;;16.10;88.50;;;;;;4988233;28;20037;-79
2023/03/23 11:04:01;;;;;;;10.20;2.10;;;15.90;87.10;;;;;;4987731;28;20029;-79
2023/03/23 11:06:35;;;;;;;10.65;2.65;;;15.80;87.80;;;;;;4986836;28;20488;-78
2023/03/23 11:09:11;;;;;;;16.33;3.17;;;15.80;87.10;;;;;;4997407;28;20127;-79
2023/03/23 11:11:42;;;;;;;7.32;2.10;;;15.80;87.70;;;;;;4985401;28;20054;-78
2023/03/23 11:14:29;;;;;;;10.27;2.42;;;15.90;87.70;;;;;;4988509;28;20736;-80
2023/03/23 11:16:57;;;;;;;14.05;3.03;;;15.90;86.20;;;;;;5002095;28;20153;-80
2023/03/23 11:19:27;;;;;;;11.73;2.55;;;16.10;86.50;;;;;;4999286;28;20057;-78
2023/03/23 11:21:54;;;;;;;11.20;2.07;;;16.30;88.10;;;;;;4999401;28;20110;-78
2023/03/23 11:24:27;;;;;;;11.45;2.83;;;16.50;88.60;;;;;;5001649;28;20026;-80
2023/03/23 11:26:56;;;;;;;12.77;3.20;;;16.70;85.40;;;;;;4983093;28;20134;-78
2023/03/23 11:29:26;;;;;;;9.73;2.22;;;17.00;84.60;;;;;;4991239;28;20022;-78
2023/03/23 11:32:00;;;;;;;8.52;2.80;;;17.00;84.10;;;;;;4999637;28;20034;-78
2023/03/23 11:34:35;;;;;;;11.07;2.92;;;17.10;83.70;;;;;;4995763;28;20270;-77
2023/03/23 11:37:08;;;;;;;10.98;2.40;;;17.30;82.80;;;;;;4999611;28;20217;-79
2023/03/23 11:39:55;;;;;;;11.50;3.35;;;17.20;83.30;;;;;;4994520;28;20530;-78
2023/03/23 11:42:34;;;;;;;6.07;1.92;;;17.40;83.60;;;;;;4992057;28;20101;-79
2023/03/23 11:45:13;;;;;;;9.77;2.30;;;17.60;82.20;;;;;;4990245;28;20050;-79
2023/03/23 11:47:58;;;;;;;12.18;2.60;;;17.40;82.20;;;;;;4989711;28;20050;-79
2023/03/23 11:50:29;;;;;;;8.30;2.63;;;17.10;82.50;;;;;;4992576;28;20023;-79
2023/03/23 11:53:15;;;;;;;9.43;2.72;;;16.90;85.30;;;;;;4993511;28;20042;-78
2023/03/23 11:55:44;;;;;;;10.43;2.95;;;16.70;84.20;;;;;;4988438;28;20046;-79
2023/03/23 11:58:15;;;;;;;9.27;2.63;;;16.60;84.00;;;;;;4990475;28;20037;-79
2023/03/23 12:00:47;;;;;;;12.52;2.65;;;16.50;85.90;;;;;;5004269;28;20022;-78
2023/03/23 12:03:46;;;;;;;10.50;2.92;;;16.50;85.80;;;;;;4988260;28;20073;-80
2023/03/23 12:06:19;;;;;;;13.23;2.92;;;16.50;86.60;;;;;;4996645;28;20788;-79
2023/03/23 12:09:24;;;;;;;9.38;2.70;;;16.40;86.60;;;;;;4994254;28;20026;-78
2023/03/23 12:12:12;;;;;;;13.55;3.08;;;16.30;86.80;;;;;;4984750;28;20100;-79
2023/03/23 12:14:51;;;;;;;9.40;2.53;;;16.10;86.70;;;;;;4989573;28;20037;-80
2023/03/23 12:17:20;;;;;;;8.35;2.22;;;16.00;87.20;;;;;;4992333;28;20046;-78
2023/03/23 12:20:21;;;;;;;13.40;3.35;;;16.00;88.00;;;;;;4999659;28;20026;-79
2023/03/23 12:22:54;;;;;;;9.93;2.92;;;15.90;87.30;;;;;;4995613;28;20168;-78
2023/03/23 12:25:29;;;;;;;11.45;3.17;;;15.90;87.00;;;;;;4997918;28;20024;-79
2023/03/23 12:28:29;;;;;;;11.23;2.60;;;15.90;87.70;;;;;;4998800;28;20388;-78
2023/03/23 12:31:22;;;;;;;7.03;2.37;;;15.90;88.50;;;;;;4996986;28;20038;-79
2023/03/23 12:34:02;;;;;;;12.82;3.33;;;15.90;89.30;;;;;;5001401;28;20026;-80
2023/03/23 12:36:27;;;;;;;12.65;3.05;;;16.00;89.30;;;;;;5001526;28;20031;-78
2023/03/23 12:39:12;;;;;;;7.60;3.00;;;16.10;88.50;;;;;;4993068;28;20126;-79
2023/03/23 12:41:53;;;;;;;7.25;2.47;;;16.20;88.50;;;;;;4993544;28;20088;-79
2023/03/23 12:44:27;;;;;;;8.45;2.40;;;16.30;89.40;;;;;;4987261;28;20019;-78
2023/03/23 12:47:00;;;;;;;9.82;2.70;;;16.30;88.30;;;;;;5000930;28;20481;-79
2023/03/23 12:49:53;;;;;;;10.30;3.38;;;16.30;87.60;;;;;;5003335;28;20097;-79
2023/03/23 12:52:51;;;;;;;11.20;2.72;;;16.30;88.70;;;;;;5002419;28;20050;-80
2023/03/23 12:55:34;;;;;;;7.28;2.50;;;16.20;89.00;;;;;;5002348;28;20598;-79
2023/03/23 12:58:05;;;;;;;9.50;2.47;;;16.10;89.20;;;;;;4996614;28;20030;-80
2023/03/23 13:01:09;;;;;;;12.15;3.22;;;16.00;90.30;;;;;;4998568;28;20027;-80
2023/03/23 13:03:37;;;;;;;9.05;2.42;;;15.80;91.40;;;;;;4995547;28;20133;-80